Terminal Aerodrome Forecast
Issued by NWS

Home | Current Version | Previous Version | Text Only | Print | Product List | Glossary On
Versions: 1 2 3 4 5 6 7 8 9 10 11 12 13 14 15 16 17 18 19 20 21 22 23 24 25 26 27 28 29 30 31 32
000
FTUS45 KPSR 161140
TAFIPL
TAF
KIPL 161140Z 1612/1712 13009KT P6SM SKC
     FM162200 16015G23KT P6SM SKC
     FM170200 21012KT P6SM FEW250
     FM170800 15008KT P6SM FEW250=

USA.gov is the U.S. government's official web portal to all federal, state and local government web resources and services.